sensor_id;sensor_type;location;lat;lon;timestamp;P1;durP1;ratioP1;P2;durP2;ratioP2
24813;SDS011;12904;50.088;11.414;2023-10-31T00:01:48;7.75;;;6.95;;
24813;SDS011;12904;50.088;11.414;2023-10-31T00:04:14;6.88;;;6.28;;
24813;SDS011;12904;50.088;11.414;2023-10-31T00:06:40;6.63;;;6.05;;
24813;SDS011;12904;50.088;11.414;2023-10-31T00:09:06;7.30;;;6.70;;
24813;SDS011;12904;50.088;11.414;2023-10-31T00:11:31;7.75;;;7.03;;
24813;SDS011;12904;50.088;11.414;2023-10-31T00:13:57;7.22;;;6.60;;
24813;SDS011;12904;50.088;11.414;2023-10-31T00:16:22;7.28;;;6.53;;
24813;SDS011;12904;50.088;11.414;2023-10-31T00:18:48;7.47;;;6.70;;
24813;SDS011;12904;50.088;11.414;2023-10-31T00:21:14;8.80;;;6.65;;
24813;SDS011;12904;50.088;11.414;2023-10-31T00:23:48;9.43;;;8.30;;
24813;SDS011;12904;50.088;11.414;2023-10-31T00:26:14;7.88;;;7.15;;
24813;SDS011;12904;50.088;11.414;2023-10-31T00:28:40;8.30;;;7.50;;
24813;SDS011;12904;50.088;11.414;2023-10-31T00:31:07;12.93;;;7.43;;
24813;SDS011;12904;50.088;11.414;2023-10-31T00:33:34;9.18;;;6.57;;
24813;SDS011;12904;50.088;11.414;2023-10-31T00:36:00;8.43;;;7.45;;
24813;SDS011;12904;50.088;11.414;2023-10-31T00:38:25;8.75;;;7.85;;
24813;SDS011;12904;50.088;11.414;2023-10-31T00:40:51;7.68;;;6.97;;
24813;SDS011;12904;50.088;11.414;2023-10-31T00:43:17;6.00;;;5.57;;
24813;SDS011;12904;50.088;11.414;2023-10-31T00:45:42;7.00;;;6.50;;
24813;SDS011;12904;50.088;11.414;2023-10-31T00:48:08;5.70;;;5.07;;
24813;SDS011;12904;50.088;11.414;2023-10-31T00:50:33;4.72;;;4.15;;
24813;SDS011;12904;50.088;11.414;2023-10-31T00:52:59;5.40;;;4.90;;
24813;SDS011;12904;50.088;11.414;2023-10-31T00:55:25;6.13;;;4.38;;
24813;SDS011;12904;50.088;11.414;2023-10-31T00:57:50;4.97;;;4.47;;
24813;SDS011;12904;50.088;11.414;2023-10-31T01:00:16;4.38;;;3.97;;
24813;SDS011;12904;50.088;11.414;2023-10-31T01:02:42;5.07;;;4.20;;
24813;SDS011;12904;50.088;11.414;2023-10-31T01:05:08;3.50;;;3.20;;
24813;SDS011;12904;50.088;11.414;2023-10-31T01:07:34;4.72;;;3.05;;
24813;SDS011;12904;50.088;11.414;2023-10-31T01:10:00;2.03;;;1.85;;
24813;SDS011;12904;50.088;11.414;2023-10-31T01:12:26;3.13;;;2.85;;
24813;SDS011;12904;50.088;11.414;2023-10-31T01:14:53;2.38;;;2.15;;
24813;SDS011;12904;50.088;11.414;2023-10-31T01:17:20;1.35;;;1.20;;
24813;SDS011;12904;50.088;11.414;2023-10-31T01:19:46;5.30;;;1.48;;
24813;SDS011;12904;50.088;11.414;2023-10-31T01:22:11;1.20;;;1.10;;
24813;SDS011;12904;50.088;11.414;2023-10-31T01:24:37;1.77;;;1.10;;
24813;SDS011;12904;50.088;11.414;2023-10-31T01:27:02;0.80;;;0.80;;
24813;SDS011;12904;50.088;11.414;2023-10-31T01:29:28;1.00;;;0.80;;
24813;SDS011;12904;50.088;11.414;2023-10-31T01:31:54;2.17;;;1.13;;
24813;SDS011;12904;50.088;11.414;2023-10-31T01:34:19;1.35;;;0.73;;
24813;SDS011;12904;50.088;11.414;2023-10-31T01:36:45;0.93;;;0.88;;
24813;SDS011;12904;50.088;11.414;2023-10-31T01:39:11;0.75;;;0.70;;
24813;SDS011;12904;50.088;11.414;2023-10-31T01:41:36;1.10;;;1.00;;
24813;SDS011;12904;50.088;11.414;2023-10-31T01:44:02;0.95;;;0.80;;
24813;SDS011;12904;50.088;11.414;2023-10-31T01:46:28;0.80;;;0.80;;
24813;SDS011;12904;50.088;11.414;2023-10-31T01:48:53;1.30;;;0.90;;
24813;SDS011;12904;50.088;11.414;2023-10-31T01:51:19;0.93;;;0.90;;
24813;SDS011;12904;50.088;11.414;2023-10-31T01:53:45;0.70;;;0.70;;
24813;SDS011;12904;50.088;11.414;2023-10-31T01:56:11;0.70;;;0.70;;
24813;SDS011;12904;50.088;11.414;2023-10-31T01:58:37;1.80;;;0.80;;
24813;SDS011;12904;50.088;11.414;2023-10-31T02:01:04;1.02;;;0.85;;
24813;SDS011;12904;50.088;11.414;2023-10-31T02:03:30;0.90;;;0.90;;
24813;SDS011;12904;50.088;11.414;2023-10-31T02:05:58;1.10;;;1.00;;
24813;SDS011;12904;50.088;11.414;2023-10-31T02:08:24;1.40;;;0.98;;
24813;SDS011;12904;50.088;11.414;2023-10-31T02:10:50;2.55;;;1.00;;
24813;SDS011;12904;50.088;11.414;2023-10-31T02:13:16;1.92;;;0.93;;
24813;SDS011;12904;50.088;11.414;2023-10-31T02:15:43;1.05;;;0.95;;
24813;SDS011;12904;50.088;11.414;2023-10-31T02:18:09;1.20;;;0.80;;
24813;SDS011;12904;50.088;11.414;2023-10-31T02:20:35;1.83;;;0.90;;
24813;SDS011;12904;50.088;11.414;2023-10-31T02:23:01;1.10;;;1.05;;
24813;SDS011;12904;50.088;11.414;2023-10-31T02:25:28;2.35;;;1.30;;
24813;SDS011;12904;50.088;11.414;2023-10-31T02:27:53;1.17;;;1.10;;
24813;SDS011;12904;50.088;11.414;2023-10-31T02:30:19;1.13;;;1.00;;
24813;SDS011;12904;50.088;11.414;2023-10-31T02:32:45;1.70;;;1.00;;
24813;SDS011;12904;50.088;11.414;2023-10-31T02:35:11;0.82;;;0.80;;
24813;SDS011;12904;50.088;11.414;2023-10-31T02:37:36;1.05;;;0.95;;
24813;SDS011;12904;50.088;11.414;2023-10-31T02:40:02;0.88;;;0.88;;
24813;SDS011;12904;50.088;11.414;2023-10-31T02:42:28;2.78;;;0.95;;
24813;SDS011;12904;50.088;11.414;2023-10-31T02:44:54;0.80;;;0.80;;
24813;SDS011;12904;50.088;11.414;2023-10-31T02:47:19;1.85;;;0.77;;
24813;SDS011;12904;50.088;11.414;2023-10-31T02:49:45;0.50;;;0.50;;
24813;SDS011;12904;50.088;11.414;2023-10-31T02:52:11;0.40;;;0.40;;
24813;SDS011;12904;50.088;11.414;2023-10-31T02:54:37;0.40;;;0.40;;
24813;SDS011;12904;50.088;11.414;2023-10-31T02:57:03;0.57;;;0.50;;
24813;SDS011;12904;50.088;11.414;2023-10-31T02:59:29;0.45;;;0.45;;
24813;SDS011;12904;50.088;11.414;2023-10-31T03:01:55;0.95;;;0.50;;
24813;SDS011;12904;50.088;11.414;2023-10-31T03:04:21;0.73;;;0.40;;
24813;SDS011;12904;50.088;11.414;2023-10-31T03:06:47;0.38;;;0.38;;
24813;SDS011;12904;50.088;11.414;2023-10-31T03:09:13;1.17;;;0.40;;
24813;SDS011;12904;50.088;11.414;2023-10-31T03:11:38;0.77;;;0.40;;
24813;SDS011;12904;50.088;11.414;2023-10-31T03:14:04;0.70;;;0.40;;
24813;SDS011;12904;50.088;11.414;2023-10-31T03:16:29;0.45;;;0.43;;
24813;SDS011;12904;50.088;11.414;2023-10-31T03:18:55;0.50;;;0.50;;
24813;SDS011;12904;50.088;11.414;2023-10-31T03:21:21;1.10;;;0.50;;
24813;SDS011;12904;50.088;11.414;2023-10-31T03:23:48;0.50;;;0.50;;
24813;SDS011;12904;50.088;11.414;2023-10-31T03:26:15;0.45;;;0.40;;
24813;SDS011;12904;50.088;11.414;2023-10-31T03:28:42;2.08;;;0.50;;
24813;SDS011;12904;50.088;11.414;2023-10-31T03:31:09;0.63;;;0.40;;
24813;SDS011;12904;50.088;11.414;2023-10-31T03:33:35;0.40;;;0.40;;
24813;SDS011;12904;50.088;11.414;2023-10-31T03:36:01;0.50;;;0.50;;
24813;SDS011;12904;50.088;11.414;2023-10-31T03:38:26;0.80;;;0.70;;
24813;SDS011;12904;50.088;11.414;2023-10-31T03:40:52;0.65;;;0.60;;
24813;SDS011;12904;50.088;11.414;2023-10-31T03:43:18;1.10;;;0.60;;
24813;SDS011;12904;50.088;11.414;2023-10-31T03:45:45;0.80;;;0.70;;
24813;SDS011;12904;50.088;11.414;2023-10-31T03:48:12;2.35;;;0.75;;
24813;SDS011;12904;50.088;11.414;2023-10-31T03:50:37;0.70;;;0.60;;
24813;SDS011;12904;50.088;11.414;2023-10-31T03:53:03;9.30;;;1.05;;
24813;SDS011;12904;50.088;11.414;2023-10-31T03:55:29;0.90;;;0.63;;
24813;SDS011;12904;50.088;11.414;2023-10-31T03:57:55;2.25;;;0.70;;
24813;SDS011;12904;50.088;11.414;2023-10-31T04:00:21;1.50;;;0.93;;
24813;SDS011;12904;50.088;11.414;2023-10-31T04:02:46;0.60;;;0.60;;
24813;SDS011;12904;50.088;11.414;2023-10-31T04:05:12;1.02;;;0.93;;
24813;SDS011;12904;50.088;11.414;2023-10-31T04:07:38;0.80;;;0.60;;
24813;SDS011;12904;50.088;11.414;2023-10-31T04:10:03;0.60;;;0.60;;
24813;SDS011;12904;50.088;11.414;2023-10-31T04:12:30;1.35;;;0.65;;
24813;SDS011;12904;50.088;11.414;2023-10-31T04:14:56;2.17;;;0.70;;
24813;SDS011;12904;50.088;11.414;2023-10-31T04:17:22;1.98;;;0.82;;
24813;SDS011;12904;50.088;11.414;2023-10-31T04:19:47;0.93;;;0.60;;
24813;SDS011;12904;50.088;11.414;2023-10-31T04:22:13;0.63;;;0.52;;
24813;SDS011;12904;50.088;11.414;2023-10-31T04:24:39;0.60;;;0.60;;
24813;SDS011;12904;50.088;11.414;2023-10-31T04:27:05;0.75;;;0.70;;
24813;SDS011;12904;50.088;11.414;2023-10-31T04:29:32;0.50;;;0.50;;
24813;SDS011;12904;50.088;11.414;2023-10-31T04:31:57;1.02;;;0.75;;
24813;SDS011;12904;50.088;11.414;2023-10-31T04:34:23;2.17;;;0.50;;
24813;SDS011;12904;50.088;11.414;2023-10-31T04:36:49;0.85;;;0.75;;
24813;SDS011;12904;50.088;11.414;2023-10-31T04:39:14;0.57;;;0.50;;
24813;SDS011;12904;50.088;11.414;2023-10-31T04:41:40;1.23;;;0.47;;
24813;SDS011;12904;50.088;11.414;2023-10-31T04:44:06;1.05;;;0.70;;
24813;SDS011;12904;50.088;11.414;2023-10-31T04:46:31;0.50;;;0.50;;
24813;SDS011;12904;50.088;11.414;2023-10-31T04:48:57;1.25;;;0.60;;
24813;SDS011;12904;50.088;11.414;2023-10-31T04:51:23;0.85;;;0.80;;
24813;SDS011;12904;50.088;11.414;2023-10-31T04:53:48;0.80;;;0.60;;
24813;SDS011;12904;50.088;11.414;2023-10-31T04:56:14;0.60;;;0.60;;
24813;SDS011;12904;50.088;11.414;2023-10-31T04:58:41;2.25;;;0.65;;
24813;SDS011;12904;50.088;11.414;2023-10-31T05:01:11;1.17;;;0.73;;
24813;SDS011;12904;50.088;11.414;2023-10-31T05:03:37;0.77;;;0.60;;
24813;SDS011;12904;50.088;11.414;2023-10-31T05:06:03;0.70;;;0.70;;
24813;SDS011;12904;50.088;11.414;2023-10-31T05:08:30;1.45;;;0.50;;
24813;SDS011;12904;50.088;11.414;2023-10-31T05:10:56;0.52;;;0.47;;
24813;SDS011;12904;50.088;11.414;2023-10-31T05:13:22;0.40;;;0.40;;
24813;SDS011;12904;50.088;11.414;2023-10-31T05:15:48;5.07;;;0.50;;
24813;SDS011;12904;50.088;11.414;2023-10-31T05:18:13;0.40;;;0.40;;
24813;SDS011;12904;50.088;11.414;2023-10-31T05:20:39;1.05;;;0.45;;
24813;SDS011;12904;50.088;11.414;2023-10-31T05:23:04;0.60;;;0.60;;
24813;SDS011;12904;50.088;11.414;2023-10-31T05:25:30;0.40;;;0.40;;
24813;SDS011;12904;50.088;11.414;2023-10-31T05:27:56;0.50;;;0.50;;
24813;SDS011;12904;50.088;11.414;2023-10-31T05:30:22;0.50;;;0.50;;
24813;SDS011;12904;50.088;11.414;2023-10-31T05:32:49;1.20;;;0.60;;
24813;SDS011;12904;50.088;11.414;2023-10-31T05:35:15;0.98;;;0.50;;
24813;SDS011;12904;50.088;11.414;2023-10-31T05:37:40;0.50;;;0.50;;
24813;SDS011;12904;50.088;11.414;2023-10-31T05:40:06;1.67;;;0.60;;
24813;SDS011;12904;50.088;11.414;2023-10-31T05:42:32;1.35;;;0.60;;
24813;SDS011;12904;50.088;11.414;2023-10-31T05:44:57;1.10;;;0.52;;
24813;SDS011;12904;50.088;11.414;2023-10-31T05:47:24;2.75;;;0.60;;
24813;SDS011;12904;50.088;11.414;2023-10-31T05:49:49;0.60;;;0.60;;
24813;SDS011;12904;50.088;11.414;2023-10-31T05:52:15;1.17;;;0.60;;
24813;SDS011;12904;50.088;11.414;2023-10-31T05:54:40;0.40;;;0.40;;
24813;SDS011;12904;50.088;11.414;2023-10-31T05:57:06;0.80;;;0.63;;
24813;SDS011;12904;50.088;11.414;2023-10-31T05:59:32;1.42;;;0.60;;
24813;SDS011;12904;50.088;11.414;2023-10-31T06:01:58;1.00;;;0.65;;
24813;SDS011;12904;50.088;11.414;2023-10-31T06:04:23;1.63;;;0.50;;
24813;SDS011;12904;50.088;11.414;2023-10-31T06:06:50;0.95;;;0.60;;
24813;SDS011;12904;50.088;11.414;2023-10-31T06:09:16;1.27;;;0.50;;
24813;SDS011;12904;50.088;11.414;2023-10-31T06:11:42;0.77;;;0.60;;
24813;SDS011;12904;50.088;11.414;2023-10-31T06:14:09;1.02;;;0.50;;
24813;SDS011;12904;50.088;11.414;2023-10-31T06:16:42;0.98;;;0.85;;
24813;SDS011;12904;50.088;11.414;2023-10-31T06:19:08;0.65;;;0.57;;
24813;SDS011;12904;50.088;11.414;2023-10-31T06:21:35;0.47;;;0.45;;
24813;SDS011;12904;50.088;11.414;2023-10-31T06:24:01;1.27;;;0.50;;
24813;SDS011;12904;50.088;11.414;2023-10-31T06:26:27;0.60;;;0.60;;
24813;SDS011;12904;50.088;11.414;2023-10-31T06:28:53;0.60;;;0.60;;
24813;SDS011;12904;50.088;11.414;2023-10-31T06:31:18;1.58;;;0.60;;
24813;SDS011;12904;50.088;11.414;2023-10-31T06:33:44;2.60;;;0.60;;
24813;SDS011;12904;50.088;11.414;2023-10-31T06:36:09;0.82;;;0.60;;
24813;SDS011;12904;50.088;11.414;2023-10-31T06:38:35;2.50;;;0.45;;
24813;SDS011;12904;50.088;11.414;2023-10-31T06:41:01;0.77;;;0.50;;
24813;SDS011;12904;50.088;11.414;2023-10-31T06:43:26;0.50;;;0.50;;
24813;SDS011;12904;50.088;11.414;2023-10-31T06:45:53;2.85;;;0.55;;
24813;SDS011;12904;50.088;11.414;2023-10-31T06:48:19;0.45;;;0.40;;
24813;SDS011;12904;50.088;11.414;2023-10-31T06:50:45;0.50;;;0.50;;
24813;SDS011;12904;50.088;11.414;2023-10-31T06:53:10;0.80;;;0.40;;
24813;SDS011;12904;50.088;11.414;2023-10-31T06:55:36;1.20;;;0.50;;
24813;SDS011;12904;50.088;11.414;2023-10-31T06:58:01;1.75;;;0.65;;
24813;SDS011;12904;50.088;11.414;2023-10-31T07:00:27;0.40;;;0.40;;
24813;SDS011;12904;50.088;11.414;2023-10-31T07:02:53;1.08;;;0.47;;
24813;SDS011;12904;50.088;11.414;2023-10-31T07:05:19;1.10;;;0.70;;
24813;SDS011;12904;50.088;11.414;2023-10-31T07:07:47;0.65;;;0.50;;
24813;SDS011;12904;50.088;11.414;2023-10-31T07:10:13;0.55;;;0.50;;
24813;SDS011;12904;50.088;11.414;2023-10-31T07:12:39;2.85;;;0.60;;
24813;SDS011;12904;50.088;11.414;2023-10-31T07:15:04;1.52;;;0.50;;
24813;SDS011;12904;50.088;11.414;2023-10-31T07:17:30;0.88;;;0.50;;
24813;SDS011;12904;50.088;11.414;2023-10-31T07:19:56;1.10;;;0.50;;
24813;SDS011;12904;50.088;11.414;2023-10-31T07:22:22;0.80;;;0.45;;
24813;SDS011;12904;50.088;11.414;2023-10-31T07:24:49;1.73;;;0.60;;
24813;SDS011;12904;50.088;11.414;2023-10-31T07:27:16;2.95;;;0.50;;
24813;SDS011;12904;50.088;11.414;2023-10-31T07:29:42;0.75;;;0.50;;
24813;SDS011;12904;50.088;11.414;2023-10-31T07:32:07;1.02;;;1.02;;
24813;SDS011;12904;50.088;11.414;2023-10-31T07:34:34;0.45;;;0.40;;
24813;SDS011;12904;50.088;11.414;2023-10-31T07:36:59;0.40;;;0.40;;
24813;SDS011;12904;50.088;11.414;2023-10-31T07:39:25;0.50;;;0.50;;
24813;SDS011;12904;50.088;11.414;2023-10-31T07:41:51;0.65;;;0.57;;
24813;SDS011;12904;50.088;11.414;2023-10-31T07:44:16;2.30;;;0.50;;
24813;SDS011;12904;50.088;11.414;2023-10-31T07:46:42;0.57;;;0.57;;
24813;SDS011;12904;50.088;11.414;2023-10-31T07:49:08;0.50;;;0.40;;
24813;SDS011;12904;50.088;11.414;2023-10-31T07:51:34;0.65;;;0.65;;
24813;SDS011;12904;50.088;11.414;2023-10-31T07:53:59;1.25;;;0.52;;
24813;SDS011;12904;50.088;11.414;2023-10-31T07:56:25;0.73;;;0.40;;
24813;SDS011;12904;50.088;11.414;2023-10-31T07:58:51;1.17;;;0.50;;
24813;SDS011;12904;50.088;11.414;2023-10-31T08:01:17;0.50;;;0.50;;
24813;SDS011;12904;50.088;11.414;2023-10-31T08:03:43;0.70;;;0.50;;
24813;SDS011;12904;50.088;11.414;2023-10-31T08:06:10;0.70;;;0.40;;
24813;SDS011;12904;50.088;11.414;2023-10-31T08:08:36;0.60;;;0.50;;
24813;SDS011;12904;50.088;11.414;2023-10-31T08:11:02;2.47;;;0.70;;
24813;SDS011;12904;50.088;11.414;2023-10-31T08:13:28;1.13;;;0.50;;
24813;SDS011;12904;50.088;11.414;2023-10-31T08:15:55;0.75;;;0.60;;
24813;SDS011;12904;50.088;11.414;2023-10-31T08:18:21;0.50;;;0.50;;
24813;SDS011;12904;50.088;11.414;2023-10-31T08:20:48;0.70;;;0.70;;
24813;SDS011;12904;50.088;11.414;2023-10-31T08:23:15;0.55;;;0.55;;
24813;SDS011;12904;50.088;11.414;2023-10-31T08:25:41;0.43;;;0.43;;
24813;SDS011;12904;50.088;11.414;2023-10-31T08:28:07;0.82;;;0.40;;
24813;SDS011;12904;50.088;11.414;2023-10-31T08:30:33;0.68;;;0.68;;
24813;SDS011;12904;50.088;11.414;2023-10-31T08:32:59;1.83;;;0.60;;
24813;SDS011;12904;50.088;11.414;2023-10-31T08:35:24;1.10;;;0.50;;
24813;SDS011;12904;50.088;11.414;2023-10-31T08:37:50;1.65;;;0.40;;
24813;SDS011;12904;50.088;11.414;2023-10-31T08:40:15;0.63;;;0.52;;
24813;SDS011;12904;50.088;11.414;2023-10-31T08:42:41;0.77;;;0.45;;
24813;SDS011;12904;50.088;11.414;2023-10-31T08:45:08;0.90;;;0.50;;
24813;SDS011;12904;50.088;11.414;2023-10-31T08:47:34;1.45;;;0.50;;
24813;SDS011;12904;50.088;11.414;2023-10-31T08:50:00;1.20;;;0.52;;
24813;SDS011;12904;50.088;11.414;2023-10-31T08:52:25;2.28;;;0.50;;
24813;SDS011;12904;50.088;11.414;2023-10-31T08:54:51;0.60;;;0.60;;
24813;SDS011;12904;50.088;11.414;2023-10-31T08:57:16;4.22;;;0.50;;
24813;SDS011;12904;50.088;11.414;2023-10-31T08:59:42;0.75;;;0.50;;
24813;SDS011;12904;50.088;11.414;2023-10-31T09:02:08;2.67;;;0.57;;
24813;SDS011;12904;50.088;11.414;2023-10-31T09:04:33;2.25;;;0.52;;
24813;SDS011;12904;50.088;11.414;2023-10-31T09:07:00;0.52;;;0.52;;
24813;SDS011;12904;50.088;11.414;2023-10-31T09:09:26;1.17;;;0.55;;
24813;SDS011;12904;50.088;11.414;2023-10-31T09:11:51;2.38;;;0.70;;
24813;SDS011;12904;50.088;11.414;2023-10-31T09:14:17;1.55;;;0.65;;
24813;SDS011;12904;50.088;11.414;2023-10-31T09:16:42;1.35;;;0.60;;
24813;SDS011;12904;50.088;11.414;2023-10-31T09:19:08;2.83;;;0.63;;
24813;SDS011;12904;50.088;11.414;2023-10-31T09:21:34;0.98;;;0.57;;
24813;SDS011;12904;50.088;11.414;2023-10-31T09:23:59;1.50;;;0.60;;
24813;SDS011;12904;50.088;11.414;2023-10-31T09:26:26;1.58;;;0.93;;
24813;SDS011;12904;50.088;11.414;2023-10-31T09:28:51;1.35;;;0.60;;
24813;SDS011;12904;50.088;11.414;2023-10-31T09:31:17;3.10;;;0.80;;
24813;SDS011;12904;50.088;11.414;2023-10-31T09:33:43;2.50;;;0.60;;
24813;SDS011;12904;50.088;11.414;2023-10-31T09:36:10;1.15;;;0.60;;
24813;SDS011;12904;50.088;11.414;2023-10-31T09:38:36;0.82;;;0.50;;
24813;SDS011;12904;50.088;11.414;2023-10-31T09:41:02;1.95;;;0.60;;
24813;SDS011;12904;50.088;11.414;2023-10-31T09:43:28;2.90;;;1.13;;
24813;SDS011;12904;50.088;11.414;2023-10-31T09:45:53;1.15;;;0.85;;
24813;SDS011;12904;50.088;11.414;2023-10-31T09:48:20;1.08;;;0.60;;
24813;SDS011;12904;50.088;11.414;2023-10-31T09:50:46;0.57;;;0.57;;
24813;SDS011;12904;50.088;11.414;2023-10-31T09:53:13;2.35;;;0.60;;
24813;SDS011;12904;50.088;11.414;2023-10-31T09:55:41;2.17;;;0.50;;
24813;SDS011;12904;50.088;11.414;2023-10-31T09:58:08;0.52;;;0.52;;
24813;SDS011;12904;50.088;11.414;2023-10-31T10:00:34;1.52;;;0.65;;
24813;SDS011;12904;50.088;11.414;2023-10-31T10:03:01;0.60;;;0.60;;
24813;SDS011;12904;50.088;11.414;2023-10-31T10:05:29;0.60;;;0.50;;
24813;SDS011;12904;50.088;11.414;2023-10-31T10:07:57;1.35;;;0.50;;
24813;SDS011;12904;50.088;11.414;2023-10-31T10:10:23;0.50;;;0.50;;
24813;SDS011;12904;50.088;11.414;2023-10-31T10:12:51;0.50;;;0.50;;
24813;SDS011;12904;50.088;11.414;2023-10-31T10:15:17;1.13;;;0.93;;
24813;SDS011;12904;50.088;11.414;2023-10-31T10:17:52;3.78;;;0.50;;
24813;SDS011;12904;50.088;11.414;2023-10-31T10:20:18;0.75;;;0.50;;
24813;SDS011;12904;50.088;11.414;2023-10-31T10:22:44;0.60;;;0.40;;
24813;SDS011;12904;50.088;11.414;2023-10-31T10:25:11;0.60;;;0.60;;
24813;SDS011;12904;50.088;11.414;2023-10-31T10:27:41;1.10;;;0.52;;
24813;SDS011;12904;50.088;11.414;2023-10-31T10:30:07;0.47;;;0.43;;
24813;SDS011;12904;50.088;11.414;2023-10-31T10:32:33;0.50;;;0.50;;
24813;SDS011;12904;50.088;11.414;2023-10-31T10:34:59;0.63;;;0.40;;
24813;SDS011;12904;50.088;11.414;2023-10-31T10:37:26;1.15;;;0.52;;
24813;SDS011;12904;50.088;11.414;2023-10-31T10:39:52;1.25;;;0.50;;
24813;SDS011;12904;50.088;11.414;2023-10-31T10:42:30;0.75;;;0.50;;
24813;SDS011;12904;50.088;11.414;2023-10-31T10:45:13;1.52;;;0.82;;
24813;SDS011;12904;50.088;11.414;2023-10-31T10:47:41;1.42;;;0.50;;
24813;SDS011;12904;50.088;11.414;2023-10-31T10:50:13;0.80;;;0.77;;
24813;SDS011;12904;50.088;11.414;2023-10-31T10:52:48;1.38;;;0.50;;
24813;SDS011;12904;50.088;11.414;2023-10-31T10:55:21;10.05;;;1.05;;
24813;SDS011;12904;50.088;11.414;2023-10-31T11:00:21;1.30;;;0.55;;
24813;SDS011;12904;50.088;11.414;2023-10-31T11:02:51;1.02;;;0.52;;
24813;SDS011;12904;50.088;11.414;2023-10-31T11:05:17;0.98;;;0.60;;
24813;SDS011;12904;50.088;11.414;2023-10-31T11:07:43;3.42;;;0.50;;
24813;SDS011;12904;50.088;11.414;2023-10-31T11:10:10;1.50;;;0.60;;
24813;SDS011;12904;50.088;11.414;2023-10-31T11:12:37;0.30;;;0.30;;
24813;SDS011;12904;50.088;11.414;2023-10-31T11:15:06;0.52;;;0.50;;
24813;SDS011;12904;50.088;11.414;2023-10-31T11:17:34;0.40;;;0.40;;
24813;SDS011;12904;50.088;11.414;2023-10-31T11:20:03;0.60;;;0.40;;
24813;SDS011;12904;50.088;11.414;2023-10-31T11:22:39;1.10;;;0.57;;
24813;SDS011;12904;50.088;11.414;2023-10-31T11:25:08;0.77;;;0.60;;
24813;SDS011;12904;50.088;11.414;2023-10-31T11:27:35;1.02;;;0.52;;
24813;SDS011;12904;50.088;11.414;2023-10-31T11:30:04;1.35;;;0.50;;
24813;SDS011;12904;50.088;11.414;2023-10-31T11:32:31;1.25;;;0.40;;
24813;SDS011;12904;50.088;11.414;2023-10-31T11:34:58;4.90;;;0.60;;
24813;SDS011;12904;50.088;11.414;2023-10-31T11:42:49;0.68;;;0.60;;
24813;SDS011;12904;50.088;11.414;2023-10-31T11:45:26;0.70;;;0.50;;
24813;SDS011;12904;50.088;11.414;2023-10-31T11:47:56;0.77;;;0.50;;
24813;SDS011;12904;50.088;11.414;2023-10-31T11:50:22;1.10;;;0.63;;
24813;SDS011;12904;50.088;11.414;2023-10-31T11:52:58;2.65;;;0.50;;
24813;SDS011;12904;50.088;11.414;2023-10-31T11:55:25;0.65;;;0.40;;
24813;SDS011;12904;50.088;11.414;2023-10-31T11:57:50;0.90;;;0.50;;
24813;SDS011;12904;50.088;11.414;2023-10-31T12:00:23;1.80;;;0.45;;
24813;SDS011;12904;50.088;11.414;2023-10-31T12:02:58;0.57;;;0.57;;
24813;SDS011;12904;50.088;11.414;2023-10-31T12:05:27;0.63;;;0.63;;
24813;SDS011;12904;50.088;11.414;2023-10-31T12:07:53;0.55;;;0.50;;
24813;SDS011;12904;50.088;11.414;2023-10-31T12:10:26;2.03;;;0.50;;
24813;SDS011;12904;50.088;11.414;2023-10-31T12:12:55;0.40;;;0.40;;
24813;SDS011;12904;50.088;11.414;2023-10-31T12:15:21;0.70;;;0.60;;
24813;SDS011;12904;50.088;11.414;2023-10-31T12:17:47;0.50;;;0.50;;
24813;SDS011;12904;50.088;11.414;2023-10-31T12:20:14;0.50;;;0.50;;
24813;SDS011;12904;50.088;11.414;2023-10-31T12:22:40;1.60;;;1.15;;
24813;SDS011;12904;50.088;11.414;2023-10-31T12:25:07;0.50;;;0.50;;
24813;SDS011;12904;50.088;11.414;2023-10-31T12:27:46;0.40;;;0.40;;
24813;SDS011;12904;50.088;11.414;2023-10-31T12:30:15;1.83;;;0.63;;
24813;SDS011;12904;50.088;11.414;2023-10-31T12:32:43;0.57;;;0.55;;
24813;SDS011;12904;50.088;11.414;2023-10-31T12:35:13;0.52;;;0.43;;
24813;SDS011;12904;50.088;11.414;2023-10-31T12:37:44;0.40;;;0.40;;
24813;SDS011;12904;50.088;11.414;2023-10-31T12:40:16;0.90;;;0.60;;
24813;SDS011;12904;50.088;11.414;2023-10-31T12:42:44;0.60;;;0.60;;
24813;SDS011;12904;50.088;11.414;2023-10-31T12:45:14;0.70;;;0.50;;
24813;SDS011;12904;50.088;11.414;2023-10-31T12:52:50;0.73;;;0.50;;
24813;SDS011;12904;50.088;11.414;2023-10-31T12:55:21;0.50;;;0.50;;
24813;SDS011;12904;50.088;11.414;2023-10-31T12:57:48;1.05;;;0.60;;
24813;SDS011;12904;50.088;11.414;2023-10-31T13:00:14;0.50;;;0.50;;
24813;SDS011;12904;50.088;11.414;2023-10-31T13:02:43;1.20;;;0.70;;
24813;SDS011;12904;50.088;11.414;2023-10-31T13:05:10;6.72;;;0.88;;
24813;SDS011;12904;50.088;11.414;2023-10-31T13:07:37;1.42;;;0.55;;
24813;SDS011;12904;50.088;11.414;2023-10-31T13:10:03;0.63;;;0.63;;
24813;SDS011;12904;50.088;11.414;2023-10-31T13:12:30;1.13;;;0.80;;
24813;SDS011;12904;50.088;11.414;2023-10-31T13:14:56;1.05;;;0.52;;
24813;SDS011;12904;50.088;11.414;2023-10-31T13:17:22;1.42;;;0.82;;
24813;SDS011;12904;50.088;11.414;2023-10-31T13:19:47;0.35;;;0.35;;
24813;SDS011;12904;50.088;11.414;2023-10-31T13:22:13;1.10;;;0.55;;
24813;SDS011;12904;50.088;11.414;2023-10-31T13:24:38;0.98;;;0.40;;
24813;SDS011;12904;50.088;11.414;2023-10-31T13:27:05;1.42;;;0.50;;
24813;SDS011;12904;50.088;11.414;2023-10-31T13:29:31;1.05;;;0.60;;
24813;SDS011;12904;50.088;11.414;2023-10-31T13:31:58;8.68;;;0.93;;
24813;SDS011;12904;50.088;11.414;2023-10-31T13:34:23;2.75;;;0.55;;
24813;SDS011;12904;50.088;11.414;2023-10-31T13:36:49;0.75;;;0.50;;
24813;SDS011;12904;50.088;11.414;2023-10-31T13:39:14;1.70;;;0.50;;
24813;SDS011;12904;50.088;11.414;2023-10-31T13:41:40;1.33;;;0.52;;
24813;SDS011;12904;50.088;11.414;2023-10-31T13:44:06;1.25;;;0.57;;
24813;SDS011;12904;50.088;11.414;2023-10-31T13:46:32;1.67;;;0.57;;
24813;SDS011;12904;50.088;11.414;2023-10-31T13:48:57;0.52;;;0.50;;
24813;SDS011;12904;50.088;11.414;2023-10-31T13:51:23;1.02;;;0.50;;
24813;SDS011;12904;50.088;11.414;2023-10-31T13:53:48;0.93;;;0.60;;
24813;SDS011;12904;50.088;11.414;2023-10-31T13:56:15;4.38;;;0.50;;
24813;SDS011;12904;50.088;11.414;2023-10-31T13:58:41;1.73;;;0.50;;
24813;SDS011;12904;50.088;11.414;2023-10-31T14:01:07;0.50;;;0.50;;
24813;SDS011;12904;50.088;11.414;2023-10-31T14:03:33;0.57;;;0.57;;
24813;SDS011;12904;50.088;11.414;2023-10-31T14:05:58;0.55;;;0.55;;
24813;SDS011;12904;50.088;11.414;2023-10-31T14:08:24;0.82;;;0.60;;
24813;SDS011;12904;50.088;11.414;2023-10-31T14:10:50;0.50;;;0.50;;
24813;SDS011;12904;50.088;11.414;2023-10-31T14:13:15;1.30;;;0.50;;
24813;SDS011;12904;50.088;11.414;2023-10-31T14:15:41;1.10;;;0.68;;
24813;SDS011;12904;50.088;11.414;2023-10-31T14:18:07;2.03;;;0.60;;
24813;SDS011;12904;50.088;11.414;2023-10-31T14:20:33;2.00;;;0.70;;
24813;SDS011;12904;50.088;11.414;2023-10-31T14:22:58;2.78;;;0.95;;
24813;SDS011;12904;50.088;11.414;2023-10-31T14:25:24;2.08;;;0.60;;
24813;SDS011;12904;50.088;11.414;2023-10-31T14:27:49;0.60;;;0.57;;
24813;SDS011;12904;50.088;11.414;2023-10-31T14:30:15;1.88;;;0.40;;
24813;SDS011;12904;50.088;11.414;2023-10-31T14:32:41;0.90;;;0.70;;
24813;SDS011;12904;50.088;11.414;2023-10-31T14:35:06;2.70;;;0.63;;
24813;SDS011;12904;50.088;11.414;2023-10-31T14:37:33;1.60;;;0.60;;
24813;SDS011;12904;50.088;11.414;2023-10-31T14:39:59;0.50;;;0.50;;
24813;SDS011;12904;50.088;11.414;2023-10-31T14:42:25;1.65;;;1.42;;